Pagrindinis puslapis
METAR-TAF:

METAR-TAF

Oro uostai :

Florencija, Italija

platuma: 43-48N, ilguma: 011-12E, Aukštis: 40 m

Dabartinis oras

Ataskaita buvo paskelbta 26 minutes, ne 20:50 UTC
Vėjas 2 kt iš Rytų
Temperatūra 10°C
Drėgmė 93%
Slėgis 1018 hPa
Matomumas: 8000 m
Išsisklaidę debesys ne aukštis 5000 ft

METAR: LIRQ 272050Z 08002KT 8000 SCT050 10/09 Q1018

Laikas: 22:16 (21:16 UTC)

Prognozė

Ataskaita buvo paskelbta 4 valandos ir 16 minutes, ne 17:00 UTC
Prognozė galioja nuo 27 metu 18 UTC su 28 metu 18 UTC
Vėjas 4 kt nuo kintamojo kryptimis
Matomumas: 3000 m
Su prošvaistėmis ne aukštis 3000 ft
lietus, rūkana
Laikinai
nuo 27 metu 22 UTC su 28 metu 07 UTC
Matomumas: 1500 m
Tapsmas
nuo 28 metu 06 UTC su 28 metu 08 UTC
Vėjas 13 kt iš Vakarų/Pietvakarių
Matomumas: 8000 m

TAF: LIRQ 271700Z 2718/2818 VRB04KT 3000 RA BR BKN030 TEMPO 2722/2807 1500 BECMG 2806/2808 24013KT 8000

Orai ataskaitas ir orų prognozės (METAR, TAF).

turimą stotys yra geltonos ir raudonos taškus žemėlapyje.

Perkelti pele per norėdami pamatyti stoties vardą.

Tada spustelėkite, norėdami matyti oro stebėjimo ir prognozės.

Norėdami pakeisti žemėlapį: spustelėkite ant žalios mygtukų su juodo kryžiaus žemyn,; žalią mygtuką su brūkšneliu, jei norite nutolinti; arba žalių rodyklių gretimoms žemėlapius.


METAR-TAF: